Time;durP1;ratioP1;P1;durP2;ratioP2;P2;SDS_P1;SDS_P2;PMS_P1;PMS_P2;Temp;Humidity;BMP_temperature;BMP_pressure;BME280_temperature;BME280_humidity;BME280_pressure;Samples;Min_cycle;Max_cycle;Signal;HPM_P1;HPM_P2
2021/05/28 00:01:19;;;;;;;4.03;2.08;;;;;;;;;;4982432;28;20109;-80
2021/05/28 00:03:45;;;;;;;3.83;2.00;;;;;;;;;;4978858;28;20018;-80
2021/05/28 00:06:11;;;;;;;7.05;2.25;;;;;;;;;;4979034;28;20031;-82
2021/05/28 00:08:37;;;;;;;6.40;2.20;;;;;;;;;;4982456;28;20031;-80
2021/05/28 00:11:03;;;;;;;4.65;2.45;;;;;;;;;;4978584;28;20480;-81
2021/05/28 00:13:29;;;;;;;6.40;2.40;;;;;;;;;;4981670;28;20096;-81
2021/05/28 00:15:55;;;;;;;4.32;2.10;;;;;;;;;;4980573;28;20026;-82
2021/05/28 00:18:21;;;;;;;4.35;2.22;;;;;;;;;;4990265;28;20117;-80
2021/05/28 00:20:47;;;;;;;2.53;2.10;;;;;;;;;;4983201;28;20039;-83
2021/05/28 00:23:13;;;;;;;4.13;1.70;;;;;;;;;;4988599;28;20034;-81
2021/05/28 00:25:40;;;;;;;3.53;2.00;;;;;;;;;;4989618;28;20254;-80
2021/05/28 00:28:08;;;;;;;3.47;2.03;;;;;;;;;;4990714;28;20093;-75
2021/05/28 00:30:34;;;;;;;4.70;1.98;;;;;;;;;;4992513;28;20019;-71
2021/05/28 00:33:01;;;;;;;3.83;2.13;;;;;;;;;;4993953;28;20019;-70
2021/05/28 00:35:27;;;;;;;3.05;2.25;;;;;;;;;;4993899;28;20026;-70
2021/05/28 00:37:53;;;;;;;3.30;1.95;;;;;;;;;;4996614;28;20027;-75
2021/05/28 00:40:19;;;;;;;5.32;2.15;;;;;;;;;;4996766;28;20090;-70
2021/05/28 00:42:45;;;;;;;4.10;2.15;;;;;;;;;;4982320;28;20110;-70
2021/05/28 00:45:12;;;;;;;5.90;2.30;;;;;;;;;;4980799;28;20078;-67
2021/05/28 00:47:38;;;;;;;3.67;2.30;;;;;;;;;;4995884;28;20026;-67
2021/05/28 00:50:05;;;;;;;2.72;2.03;;;;;;;;;;4994818;28;20098;-73
2021/05/28 00:52:31;;;;;;;7.15;2.28;;;;;;;;;;4995936;28;20051;-78
2021/05/28 00:54:57;;;;;;;5.85;2.33;;;;;;;;;;4994298;28;20038;-77
2021/05/28 00:57:26;;;;;;;2.28;1.85;;;;;;;;;;4994484;28;20069;-79
2021/05/28 00:59:55;;;;;;;4.32;1.90;;;;;;;;;;4996619;28;20035;-76
2021/05/28 01:02:24;;;;;;;3.53;1.90;;;;;;;;;;4993586;28;20038;-67
2021/05/28 01:04:50;;;;;;;3.45;1.80;;;;;;;;;;4990643;28;20025;-73
2021/05/28 01:07:16;;;;;;;3.33;1.80;;;;;;;;;;4991311;28;20027;-71
2021/05/28 01:09:42;;;;;;;2.83;2.20;;;;;;;;;;4992537;28;20022;-72
2021/05/28 01:12:09;;;;;;;5.15;1.90;;;;;;;;;;4996698;28;20023;-68
2021/05/28 01:14:35;;;;;;;1.98;1.70;;;;;;;;;;4995637;28;20071;-76
2021/05/28 01:17:01;;;;;;;4.28;1.95;;;;;;;;;;4996037;28;20015;-73
2021/05/28 01:19:27;;;;;;;3.47;1.90;;;;;;;;;;4994731;28;20063;-70
2021/05/28 01:21:54;;;;;;;2.15;1.83;;;;;;;;;;4994823;28;20026;-71
2021/05/28 01:24:20;;;;;;;4.20;1.88;;;;;;;;;;4987718;28;20031;-67
2021/05/28 01:26:46;;;;;;;4.85;2.05;;;;;;;;;;4993935;28;20039;-70
2021/05/28 01:29:13;;;;;;;3.17;1.95;;;;;;;;;;4992598;28;20110;-70
2021/05/28 01:31:40;;;;;;;2.15;1.80;;;;;;;;;;4988938;28;20461;-67
2021/05/28 01:34:06;;;;;;;2.63;1.73;;;;;;;;;;4987122;28;20097;-66
2021/05/28 01:36:32;;;;;;;6.25;1.90;;;;;;;;;;4985114;28;20026;-67
2021/05/28 01:38:58;;;;;;;4.70;2.15;;;;;;;;;;4992208;28;20025;-69
2021/05/28 01:41:32;;;;;;;2.90;2.05;;;;;;;;;;4999100;28;20027;-72
2021/05/28 01:43:59;;;;;;;3.55;2.10;;;;;;;;;;4998974;28;20119;-72
2021/05/28 01:46:25;;;;;;;5.55;2.30;;;;;;;;;;4997906;28;20031;-68
2021/05/28 01:48:51;;;;;;;5.28;2.30;;;;;;;;;;4987600;28;20054;-72
2021/05/28 01:51:17;;;;;;;5.68;2.50;;;;;;;;;;4998857;28;20019;-71
2021/05/28 01:53:46;;;;;;;3.50;2.30;;;;;;;;;;5000105;28;20017;-71
2021/05/28 01:56:14;;;;;;;5.25;2.47;;;;;;;;;;4993269;28;20042;-72
2021/05/28 01:58:43;;;;;;;4.07;2.55;;;;;;;;;;5000409;28;20011;-66
2021/05/28 02:01:09;;;;;;;5.07;2.85;;;;;;;;;;4999274;28;20132;-71
2021/05/28 02:03:35;;;;;;;5.65;2.80;;;;;;;;;;5000939;28;20031;-67
2021/05/28 02:06:01;;;;;;;4.88;3.05;;;;;;;;;;4997369;28;20018;-71
2021/05/28 02:08:27;;;;;;;5.15;3.03;;;;;;;;;;5000301;28;20023;-76
2021/05/28 02:10:53;;;;;;;3.95;2.90;;;;;;;;;;4999747;28;20029;-72
2021/05/28 02:13:21;;;;;;;6.18;3.05;;;;;;;;;;5001066;28;20050;-75
2021/05/28 02:15:50;;;;;;;5.43;2.90;;;;;;;;;;4999772;28;20034;-68
2021/05/28 02:18:16;;;;;;;10.73;3.15;;;;;;;;;;4996070;28;20019;-73
2021/05/28 02:20:42;;;;;;;5.80;2.75;;;;;;;;;;4997917;28;20102;-69
2021/05/28 02:23:08;;;;;;;4.97;3.00;;;;;;;;;;4997339;28;20077;-75
2021/05/28 02:25:34;;;;;;;5.75;2.88;;;;;;;;;;4997135;28;20074;-67
2021/05/28 02:28:00;;;;;;;7.28;2.88;;;;;;;;;;4997919;28;20034;-70
2021/05/28 02:30:26;;;;;;;9.02;3.28;;;;;;;;;;4996335;28;20034;-77
2021/05/28 02:32:52;;;;;;;7.40;2.70;;;;;;;;;;4995339;28;20031;-71
2021/05/28 02:35:18;;;;;;;6.10;3.20;;;;;;;;;;4995890;28;20003;-75
2021/05/28 02:37:44;;;;;;;6.10;2.90;;;;;;;;;;4993754;28;20050;-75
2021/05/28 02:40:11;;;;;;;4.45;2.88;;;;;;;;;;4995759;28;20058;-73
2021/05/28 02:42:39;;;;;;;6.45;2.78;;;;;;;;;;4995544;28;20026;-67
2021/05/28 02:45:06;;;;;;;6.68;2.80;;;;;;;;;;4996996;28;20018;-72
2021/05/28 02:47:32;;;;;;;5.38;2.88;;;;;;;;;;4997777;28;20039;-74
2021/05/28 02:50:00;;;;;;;4.35;2.85;;;;;;;;;;4996749;28;20058;-68
2021/05/28 02:52:27;;;;;;;4.65;2.60;;;;;;;;;;4992555;28;20018;-75
2021/05/28 02:54:53;;;;;;;3.95;2.70;;;;;;;;;;4985567;28;20039;-77
2021/05/28 02:57:19;;;;;;;7.28;2.70;;;;;;;;;;4991036;28;20023;-72
2021/05/28 02:59:45;;;;;;;4.07;2.40;;;;;;;;;;4995519;28;20038;-77
2021/05/28 03:02:11;;;;;;;6.20;2.60;;;;;;;;;;4996117;28;20039;-66
2021/05/28 03:04:37;;;;;;;5.28;2.45;;;;;;;;;;4996427;28;20038;-77
2021/05/28 03:07:04;;;;;;;3.47;2.17;;;;;;;;;;4997014;28;20027;-69
2021/05/28 03:09:30;;;;;;;4.20;2.20;;;;;;;;;;4980485;28;20070;-66
2021/05/28 03:11:58;;;;;;;5.93;2.53;;;;;;;;;;4997870;28;20014;-73
2021/05/28 03:14:24;;;;;;;5.93;2.40;;;;;;;;;;4999131;28;20042;-75
2021/05/28 03:16:50;;;;;;;3.83;2.17;;;;;;;;;;4999196;28;20028;-74
2021/05/28 03:19:22;;;;;;;6.20;2.50;;;;;;;;;;4998634;28;20054;-80
2021/05/28 03:24:27;;;;;;;2.95;2.20;;;;;;;;;;4999465;28;20065;-73
2021/05/28 03:26:53;;;;;;;4.57;2.33;;;;;;;;;;4998970;28;20055;-75
2021/05/28 03:29:19;;;;;;;4.22;2.10;;;;;;;;;;5000086;28;20019;-78
2021/05/28 03:31:45;;;;;;;5.30;2.50;;;;;;;;;;4997726;28;20030;-68
2021/05/28 03:34:11;;;;;;;6.28;2.65;;;;;;;;;;4997666;28;20030;-74
2021/05/28 03:36:37;;;;;;;2.97;2.10;;;;;;;;;;4996343;28;20051;-72
2021/05/28 03:39:04;;;;;;;6.88;2.70;;;;;;;;;;4995552;28;20027;-67
2021/05/28 03:41:30;;;;;;;4.28;2.28;;;;;;;;;;4996417;28;20031;-72
2021/05/28 03:43:56;;;;;;;5.18;2.78;;;;;;;;;;4997488;28;20027;-67
2021/05/28 03:46:22;;;;;;;3.45;2.28;;;;;;;;;;4997348;28;20011;-71
2021/05/28 03:48:49;;;;;;;6.15;2.40;;;;;;;;;;4998165;28;20035;-68
2021/05/28 03:51:15;;;;;;;4.68;2.60;;;;;;;;;;4998334;28;20035;-71
2021/05/28 03:53:41;;;;;;;6.97;2.55;;;;;;;;;;4997260;28;20007;-71
2021/05/28 03:56:09;;;;;;;3.40;2.42;;;;;;;;;;4995310;28;20015;-72
2021/05/28 03:58:35;;;;;;;5.25;2.25;;;;;;;;;;4994425;28;20031;-75
2021/05/28 04:01:04;;;;;;;6.80;2.35;;;;;;;;;;4970776;28;20061;-76
2021/05/28 04:03:30;;;;;;;5.28;2.33;;;;;;;;;;4992750;28;20030;-71
2021/05/28 04:05:56;;;;;;;5.10;2.30;;;;;;;;;;4996209;28;20019;-67
2021/05/28 04:08:22;;;;;;;4.28;2.40;;;;;;;;;;4998609;28;20033;-70
2021/05/28 04:10:48;;;;;;;3.83;2.30;;;;;;;;;;4999149;28;20041;-71
2021/05/28 04:13:14;;;;;;;9.95;2.63;;;;;;;;;;4997198;28;20074;-70
2021/05/28 04:15:41;;;;;;;5.18;2.33;;;;;;;;;;4996889;28;20011;-71
2021/05/28 04:18:08;;;;;;;6.75;2.40;;;;;;;;;;4996749;28;20003;-70
2021/05/28 04:20:35;;;;;;;2.95;2.25;;;;;;;;;;4991584;28;20118;-76
2021/05/28 04:23:02;;;;;;;4.18;2.40;;;;;;;;;;4989052;28;20023;-70
2021/05/28 04:25:28;;;;;;;3.70;2.30;;;;;;;;;;4997745;28;20015;-69
2021/05/28 04:27:54;;;;;;;5.53;2.35;;;;;;;;;;4998733;28;20011;-68
2021/05/28 04:30:23;;;;;;;3.00;2.10;;;;;;;;;;4993998;28;20003;-68
2021/05/28 04:32:53;;;;;;;4.45;2.45;;;;;;;;;;4979637;28;20038;-70
2021/05/28 04:35:19;;;;;;;3.03;2.30;;;;;;;;;;4986540;28;20052;-74
2021/05/28 04:37:45;;;;;;;2.70;2.20;;;;;;;;;;4984684;28;20392;-75
2021/05/28 04:40:12;;;;;;;3.47;2.60;;;;;;;;;;4966010;28;20039;-68
2021/05/28 04:42:38;;;;;;;4.68;2.40;;;;;;;;;;4980542;28;20374;-74
2021/05/28 04:45:05;;;;;;;3.75;2.55;;;;;;;;;;4983600;28;20039;-66
2021/05/28 04:47:32;;;;;;;5.05;2.70;;;;;;;;;;4988728;28;20022;-72
2021/05/28 04:49:58;;;;;;;3.72;2.50;;;;;;;;;;4997366;28;20031;-74
2021/05/28 04:52:24;;;;;;;4.15;2.35;;;;;;;;;;4998020;28;20027;-74
2021/05/28 04:54:50;;;;;;;3.45;2.40;;;;;;;;;;4985821;28;20039;-75
2021/05/28 04:57:17;;;;;;;2.97;2.35;;;;;;;;;;4992249;28;20042;-79
2021/05/28 04:59:43;;;;;;;6.07;3.05;;;;;;;;;;4984969;28;20050;-76
2021/05/28 05:02:09;;;;;;;3.58;2.45;;;;;;;;;;4982930;28;20103;-77
2021/05/28 05:04:35;;;;;;;4.40;2.60;;;;;;;;;;4982786;28;20027;-78
2021/05/28 05:07:01;;;;;;;3.67;2.50;;;;;;;;;;4978947;28;20027;-75
2021/05/28 05:09:27;;;;;;;4.82;2.30;;;;;;;;;;4977036;28;20062;-75
2021/05/28 05:11:54;;;;;;;3.78;2.35;;;;;;;;;;4986558;28;20031;-76
2021/05/28 05:14:20;;;;;;;7.72;4.60;;;;;;;;;;4973845;28;20008;-72
2021/05/28 05:16:46;;;;;;;6.78;2.80;;;;;;;;;;4975718;28;20030;-74
2021/05/28 05:19:13;;;;;;;5.32;2.45;;;;;;;;;;4976833;28;20042;-72
2021/05/28 05:21:39;;;;;;;3.63;2.30;;;;;;;;;;4973418;28;20030;-72
2021/05/28 05:24:06;;;;;;;5.15;2.60;;;;;;;;;;4975278;28;20038;-70
2021/05/28 05:26:34;;;;;;;3.60;2.40;;;;;;;;;;4975138;28;20137;-73
2021/05/28 05:29:00;;;;;;;5.65;2.40;;;;;;;;;;4970977;28;20055;-74
2021/05/28 05:31:26;;;;;;;3.67;2.40;;;;;;;;;;4976895;28;20465;-73
2021/05/28 05:33:52;;;;;;;4.90;2.72;;;;;;;;;;4970994;28;20106;-73
2021/05/28 05:36:18;;;;;;;11.93;3.10;;;;;;;;;;4960872;29;20042;-69
2021/05/28 05:38:45;;;;;;;6.45;2.58;;;;;;;;;;4970727;28;20057;-73
2021/05/28 05:41:15;;;;;;;4.85;2.80;;;;;;;;;;4984401;28;20122;-77
2021/05/28 05:43:41;;;;;;;3.88;2.70;;;;;;;;;;4990083;28;20056;-78
2021/05/28 05:46:07;;;;;;;7.10;2.90;;;;;;;;;;4995747;28;20019;-70
2021/05/28 05:48:33;;;;;;;4.72;2.65;;;;;;;;;;4996908;28;20027;-70
2021/05/28 05:51:00;;;;;;;4.65;2.70;;;;;;;;;;4996018;28;20015;-73
2021/05/28 05:53:26;;;;;;;7.05;2.70;;;;;;;;;;4985042;28;20121;-74
2021/05/28 05:55:52;;;;;;;4.03;2.67;;;;;;;;;;4988927;28;20038;-76
2021/05/28 05:58:18;;;;;;;4.78;2.80;;;;;;;;;;4987246;28;20040;-71
2021/05/28 06:00:44;;;;;;;5.22;2.83;;;;;;;;;;4997124;28;20110;-69
2021/05/28 06:03:12;;;;;;;4.30;2.55;;;;;;;;;;4998883;28;20031;-68
2021/05/28 06:05:40;;;;;;;7.85;2.78;;;;;;;;;;5000374;28;20026;-72
2021/05/28 06:08:06;;;;;;;4.82;2.90;;;;;;;;;;4997789;28;20015;-75
2021/05/28 06:10:33;;;;;;;6.53;2.83;;;;;;;;;;5000038;28;20066;-69
2021/05/28 06:13:04;;;;;;;5.18;2.90;;;;;;;;;;4996152;28;20092;-77
2021/05/28 06:15:32;;;;;;;4.28;2.70;;;;;;;;;;4999745;28;20031;-74
2021/05/28 06:17:59;;;;;;;3.20;2.58;;;;;;;;;;4997741;28;20019;-71
2021/05/28 06:20:25;;;;;;;7.45;2.90;;;;;;;;;;4982978;28;20039;-74
2021/05/28 06:22:51;;;;;;;5.78;3.17;;;;;;;;;;4976127;28;20026;-75
2021/05/28 06:25:17;;;;;;;6.85;3.00;;;;;;;;;;4970841;28;20547;-73
2021/05/28 06:27:43;;;;;;;5.03;2.80;;;;;;;;;;4988028;28;20185;-76
2021/05/28 06:30:10;;;;;;;7.15;3.28;;;;;;;;;;4984756;28;20055;-77
2021/05/28 06:32:36;;;;;;;7.80;3.25;;;;;;;;;;4993662;28;20064;-75
2021/05/28 06:35:02;;;;;;;5.07;3.03;;;;;;;;;;5000578;28;20107;-70
2021/05/28 06:37:29;;;;;;;3.72;2.70;;;;;;;;;;5000783;28;20039;-70
2021/05/28 06:39:55;;;;;;;5.90;2.88;;;;;;;;;;5000602;28;20027;-71
2021/05/28 06:42:21;;;;;;;7.90;3.22;;;;;;;;;;4997968;28;20062;-71
2021/05/28 06:44:47;;;;;;;3.85;2.70;;;;;;;;;;4991060;28;20028;-75
2021/05/28 06:47:16;;;;;;;5.15;2.75;;;;;;;;;;4992960;28;20019;-77
2021/05/28 06:49:42;;;;;;;3.88;2.60;;;;;;;;;;4996296;28;20046;-73
2021/05/28 06:52:09;;;;;;;5.78;2.63;;;;;;;;;;5000386;28;20098;-71
2021/05/28 06:54:36;;;;;;;6.00;2.75;;;;;;;;;;4988858;28;20038;-72
2021/05/28 06:57:04;;;;;;;4.35;3.15;;;;;;;;;;4998576;28;20011;-70
2021/05/28 06:59:30;;;;;;;5.47;2.90;;;;;;;;;;5000515;28;20086;-72
2021/05/28 07:01:56;;;;;;;4.70;2.67;;;;;;;;;;4975322;28;20409;-78
2021/05/28 07:04:23;;;;;;;5.32;3.00;;;;;;;;;;4993227;28;20023;-78
2021/05/28 07:06:49;;;;;;;5.47;2.80;;;;;;;;;;4999000;28;20023;-72
2021/05/28 07:09:15;;;;;;;5.55;3.10;;;;;;;;;;4989076;28;20011;-67
2021/05/28 07:11:41;;;;;;;5.82;2.83;;;;;;;;;;4992712;28;20030;-72
2021/05/28 07:14:07;;;;;;;4.60;2.70;;;;;;;;;;4984701;28;20080;-72
2021/05/28 07:16:34;;;;;;;6.43;2.83;;;;;;;;;;4979183;28;20027;-73
2021/05/28 07:19:00;;;;;;;3.95;2.92;;;;;;;;;;4983490;28;20023;-73
2021/05/28 07:21:28;;;;;;;6.15;2.90;;;;;;;;;;4994417;28;20038;-71
2021/05/28 07:23:54;;;;;;;6.18;2.70;;;;;;;;;;4996851;28;20106;-76
2021/05/28 07:26:23;;;;;;;5.25;3.00;;;;;;;;;;4990511;28;20492;-71
2021/05/28 07:28:49;;;;;;;5.43;2.90;;;;;;;;;;4980158;28;20143;-76
2021/05/28 07:31:15;;;;;;;6.65;3.08;;;;;;;;;;4985456;28;20026;-75
2021/05/28 07:33:41;;;;;;;7.18;3.25;;;;;;;;;;4986566;28;20029;-73
2021/05/28 07:36:08;;;;;;;7.80;2.92;;;;;;;;;;4967268;28;20035;-73
2021/05/28 07:38:34;;;;;;;9.88;3.22;;;;;;;;;;4970959;28;20038;-71
2021/05/28 07:41:01;;;;;;;8.63;2.88;;;;;;;;;;4973873;28;20035;-69
2021/05/28 07:43:29;;;;;;;6.22;3.05;;;;;;;;;;4977341;28;20007;-69
2021/05/28 07:45:58;;;;;;;8.77;3.22;;;;;;;;;;4974607;28;20039;-72
2021/05/28 07:48:24;;;;;;;8.77;3.05;;;;;;;;;;4954536;28;20026;-72
2021/05/28 07:50:50;;;;;;;6.68;3.30;;;;;;;;;;4974756;28;20503;-71
2021/05/28 07:53:18;;;;;;;5.95;2.90;;;;;;;;;;4961858;28;20437;-69
2021/05/28 07:55:45;;;;;;;5.88;3.10;;;;;;;;;;4975478;28;20473;-70
2021/05/28 07:58:11;;;;;;;5.90;3.03;;;;;;;;;;4974750;28;20030;-70
2021/05/28 08:00:38;;;;;;;5.30;3.00;;;;;;;;;;4976926;28;20039;-75
2021/05/28 08:03:04;;;;;;;8.32;3.03;;;;;;;;;;4964338;28;20031;-73
2021/05/28 08:05:30;;;;;;;7.20;3.10;;;;;;;;;;4983414;28;20035;-74
2021/05/28 08:07:57;;;;;;;6.95;2.92;;;;;;;;;;4984911;28;20130;-77
2021/05/28 08:10:23;;;;;;;6.32;3.17;;;;;;;;;;4986940;28;20027;-72
2021/05/28 08:12:50;;;;;;;10.27;3.22;;;;;;;;;;4985199;28;20559;-78
2021/05/28 08:15:18;;;;;;;6.13;3.40;;;;;;;;;;4981845;28;20051;-73
2021/05/28 08:17:47;;;;;;;6.68;3.35;;;;;;;;;;4975472;28;20046;-75
2021/05/28 08:20:13;;;;;;;6.75;3.40;;;;;;;;;;4985069;28;20031;-77
2021/05/28 08:22:44;;;;;;;8.27;3.72;;;;;;;;;;4981953;28;20057;-76
2021/05/28 08:25:12;;;;;;;8.30;4.20;;;;;;;;;;4979990;28;20534;-75
2021/05/28 08:27:40;;;;;;;10.45;4.03;;;;;;;;;;4994400;28;20118;-75
2021/05/28 08:30:23;;;;;;;7.82;3.60;;;;;;;;;;4994078;28;20031;-75
2021/05/28 08:32:49;;;;;;;6.45;3.75;;;;;;;;;;4990167;28;20058;-75
2021/05/28 08:35:15;;;;;;;6.03;3.17;;;;;;;;;;4982409;28;20027;-73
2021/05/28 08:37:41;;;;;;;9.15;3.63;;;;;;;;;;4978902;28;20027;-75
2021/05/28 08:43:05;;;;;;;10.02;4.35;;;;;;;;;;4970543;28;20138;-75
2021/05/28 08:45:34;;;;;;;16.48;8.15;;;;;;;;;;4954478;29;20035;-69
2021/05/28 08:48:00;;;;;;;12.65;7.15;;;;;;;;;;4959354;29;20102;-69
2021/05/28 08:50:27;;;;;;;11.73;5.75;;;;;;;;;;4955458;29;20122;-74
2021/05/28 08:52:53;;;;;;;10.85;5.50;;;;;;;;;;4955072;28;20039;-72
2021/05/28 08:55:19;;;;;;;15.45;6.70;;;;;;;;;;4959106;28;20050;-71
2021/05/28 08:57:45;;;;;;;9.25;4.65;;;;;;;;;;4965942;29;20070;-76
2021/05/28 09:00:12;;;;;;;10.15;5.10;;;;;;;;;;4955776;29;20039;-72
2021/05/28 09:02:40;;;;;;;7.30;4.45;;;;;;;;;;4970552;29;20063;-75
2021/05/28 09:05:10;;;;;;;17.10;4.90;;;;;;;;;;4965771;29;20041;-72
2021/05/28 09:07:37;;;;;;;8.25;3.92;;;;;;;;;;4962233;29;20532;-71
2021/05/28 09:10:23;;;;;;;9.63;4.90;;;;;;;;;;4958360;29;20070;-71
2021/05/28 09:12:49;;;;;;;8.65;4.82;;;;;;;;;;4951055;28;20043;-71
2021/05/28 09:15:19;;;;;;;5.53;3.88;;;;;;;;;;4974305;28;20035;-74
2021/05/28 09:17:53;;;;;;;6.93;3.65;;;;;;;;;;4974264;28;20027;-71
2021/05/28 09:20:19;;;;;;;8.18;3.70;;;;;;;;;;4972619;28;20043;-74
2021/05/28 09:22:46;;;;;;;7.57;4.28;;;;;;;;;;4976622;28;20384;-74
2021/05/28 09:25:12;;;;;;;7.07;3.80;;;;;;;;;;4974014;28;20090;-68
2021/05/28 09:27:40;;;;;;;7.45;4.10;;;;;;;;;;4978454;28;20063;-73
2021/05/28 09:30:06;;;;;;;8.27;4.80;;;;;;;;;;4976768;28;20041;-75
2021/05/28 09:32:33;;;;;;;5.10;3.83;;;;;;;;;;4978269;28;20042;-73
2021/05/28 09:34:59;;;;;;;19.17;7.78;;;;;;;;;;4975290;28;20026;-74
2021/05/28 09:37:55;;;;;;;10.48;6.38;;;;;;;;;;4974577;28;20158;-72
2021/05/28 09:40:23;;;;;;;6.90;4.20;;;;;;;;;;4893249;29;20079;-74
2021/05/28 09:42:49;;;;;;;9.35;3.97;;;;;;;;;;4897458;29;20115;-74
2021/05/28 09:45:31;;;;;;;7.28;4.53;;;;;;;;;;4897499;29;20112;-74
2021/05/28 09:48:00;;;;;;;7.00;3.10;;;;;;;;;;4896397;29;20040;-74
2021/05/28 09:50:32;;;;;;;11.43;3.70;;;;;;;;;;4900703;29;20404;-72
2021/05/28 09:53:01;;;;;;;7.00;3.25;;;;;;;;;;4899935;29;20065;-70
2021/05/28 09:55:29;;;;;;;5.03;3.00;;;;;;;;;;4898517;29;20063;-68
2021/05/28 09:57:57;;;;;;;8.13;2.83;;;;;;;;;;4900041;29;20044;-69
2021/05/28 10:00:31;;;;;;;6.20;3.40;;;;;;;;;;4896779;29;20039;-71
2021/05/28 10:03:15;;;;;;;4.97;3.30;;;;;;;;;;4894390;29;20036;-74
2021/05/28 10:05:43;;;;;;;5.18;3.40;;;;;;;;;;4894899;29;20029;-74
2021/05/28 10:08:10;;;;;;;7.30;3.70;;;;;;;;;;4894707;29;20089;-72
2021/05/28 10:10:37;;;;;;;5.20;3.17;;;;;;;;;;4895802;29;20483;-69
2021/05/28 10:13:10;;;;;;;6.45;3.30;;;;;;;;;;4891737;29;20071;-68
2021/05/28 10:15:36;;;;;;;8.25;3.10;;;;;;;;;;4892527;28;20028;-70
2021/05/28 10:18:03;;;;;;;5.18;2.97;;;;;;;;;;4976536;28;20577;-68
2021/05/28 10:20:29;;;;;;;5.45;3.00;;;;;;;;;;4958691;28;20052;-74
2021/05/28 10:22:56;;;;;;;6.85;3.15;;;;;;;;;;4970899;28;20019;-70
2021/05/28 10:25:23;;;;;;;6.45;3.05;;;;;;;;;;4984145;28;20452;-72
2021/05/28 10:27:56;;;;;;;7.03;2.97;;;;;;;;;;4975638;28;20056;-75
2021/05/28 10:30:24;;;;;;;7.45;3.15;;;;;;;;;;4985614;28;20037;-73
2021/05/28 10:33:09;;;;;;;5.18;3.17;;;;;;;;;;4972472;28;20049;-69
2021/05/28 10:35:39;;;;;;;13.15;6.50;;;;;;;;;;4974718;28;20087;-75
2021/05/28 10:38:25;;;;;;;11.30;5.57;;;;;;;;;;4979332;28;20485;-75
2021/05/28 10:40:51;;;;;;;6.82;4.07;;;;;;;;;;4970116;28;20085;-74
2021/05/28 10:43:23;;;;;;;6.20;3.22;;;;;;;;;;4962259;28;20089;-74
2021/05/28 10:46:07;;;;;;;8.48;4.38;;;;;;;;;;4974972;28;20019;-71
2021/05/28 10:48:39;;;;;;;7.50;3.70;;;;;;;;;;4972026;28;20031;-77
2021/05/28 10:51:05;;;;;;;12.07;4.10;;;;;;;;;;4973478;28;20018;-72
2021/05/28 10:53:32;;;;;;;7.00;3.17;;;;;;;;;;4971849;28;20097;-68
2021/05/28 10:56:02;;;;;;;8.98;2.80;;;;;;;;;;4974022;28;20039;-74
2021/05/28 10:58:46;;;;;;;6.25;3.00;;;;;;;;;;4973016;28;20027;-75
2021/05/28 11:01:34;;;;;;;4.53;2.85;;;;;;;;;;4966992;28;20121;-75
2021/05/28 11:04:09;;;;;;;6.00;2.95;;;;;;;;;;4966142;28;20037;-75
2021/05/28 11:06:59;;;;;;;3.00;2.33;;;;;;;;;;4977732;28;20027;-75
2021/05/28 11:09:43;;;;;;;4.90;2.45;;;;;;;;;;4963374;28;20019;-71
2021/05/28 11:12:10;;;;;;;6.57;2.55;;;;;;;;;;4974379;28;20030;-74
2021/05/28 11:14:38;;;;;;;4.07;2.55;;;;;;;;;;4973816;28;20038;-75
2021/05/28 11:17:04;;;;;;;6.72;2.92;;;;;;;;;;4978091;28;20038;-75
2021/05/28 11:19:31;;;;;;;7.38;2.80;;;;;;;;;;4972659;28;20027;-75
2021/05/28 11:21:58;;;;;;;8.32;2.88;;;;;;;;;;4971152;28;20569;-79
2021/05/28 11:24:43;;;;;;;6.93;2.70;;;;;;;;;;4971390;28;20024;-84
2021/05/28 11:27:35;;;;;;;3.95;2.33;;;;;;;;;;4972900;28;20039;-86
2021/05/28 11:30:04;;;;;;;5.40;2.10;;;;;;;;;;4968373;28;20385;-85
2021/05/28 11:32:30;;;;;;;7.20;2.60;;;;;;;;;;4970123;28;20038;-75
2021/05/28 11:35:15;;;;;;;5.50;2.40;;;;;;;;;;4972016;28;20039;-80
2021/05/28 11:37:42;;;;;;;7.00;2.10;;;;;;;;;;4956466;28;20026;-85
2021/05/28 11:40:13;;;;;;;3.53;2.28;;;;;;;;;;4955357;28;20408;-81
2021/05/28 11:42:40;;;;;;;6.10;2.78;;;;;;;;;;4972466;28;20042;-77
2021/05/28 11:45:17;;;;;;;4.97;2.30;;;;;;;;;;5119575;27;20335;-75
2021/05/28 11:47:44;;;;;;;6.38;2.50;;;;;;;;;;5102344;28;20036;-75
2021/05/28 11:50:16;;;;;;;7.72;2.03;;;;;;;;;;5082267;28;20036;-77
2021/05/28 11:52:42;;;;;;;7.40;2.25;;;;;;;;;;5095429;28;20024;-70
2021/05/28 11:55:09;;;;;;;7.18;2.20;;;;;;;;;;5091200;28;20433;-77
2021/05/28 11:57:36;;;;;;;6.07;2.05;;;;;;;;;;5099541;28;20064;-75
2021/05/28 12:00:06;;;;;;;9.02;2.50;;;;;;;;;;5087061;28;20385;-77
2021/05/28 12:02:40;;;;;;;7.60;2.17;;;;;;;;;;5100696;28;20016;-81
2021/05/28 12:05:14;;;;;;;5.05;2.22;;;;;;;;;;5090409;28;20795;-77
2021/05/28 12:07:40;;;;;;;4.57;2.15;;;;;;;;;;5072157;28;20514;-79
2021/05/28 12:10:08;;;;;;;5.55;2.25;;;;;;;;;;5088894;28;20477;-79
2021/05/28 12:12:50;;;;;;;6.60;2.42;;;;;;;;;;5085012;28;20020;-80
2021/05/28 12:15:17;;;;;;;6.43;2.28;;;;;;;;;;5098008;28;20036;-76
2021/05/28 12:17:44;;;;;;;6.72;2.55;;;;;;;;;;5085506;28;20062;-82
2021/05/28 12:20:45;;;;;;;7.82;2.60;;;;;;;;;;5081131;28;20036;-79
2021/05/28 12:23:14;;;;;;;6.25;2.33;;;;;;;;;;5026977;28;20446;-80
2021/05/28 12:25:43;;;;;;;5.05;2.10;;;;;;;;;;5033172;28;20037;-75
2021/05/28 12:28:12;;;;;;;4.47;2.10;;;;;;;;;;5046295;28;20092;-78
2021/05/28 12:30:39;;;;;;;10.23;2.40;;;;;;;;;;5047320;28;20465;-79
2021/05/28 12:33:05;;;;;;;8.43;2.30;;;;;;;;;;5041200;28;20032;-77
2021/05/28 12:35:31;;;;;;;6.63;2.17;;;;;;;;;;5046659;28;20067;-80
2021/05/28 12:38:03;;;;;;;2.75;2.30;;;;;;;;;;5046323;28;20384;-78
2021/05/28 12:40:29;;;;;;;5.00;2.05;;;;;;;;;;5046866;28;20055;-80
2021/05/28 12:42:59;;;;;;;2.80;2.15;;;;;;;;;;5029172;28;20037;-78
2021/05/28 12:45:34;;;;;;;3.17;2.10;;;;;;;;;;5045910;28;20038;-79
2021/05/28 12:48:00;;;;;;;3.70;1.90;;;;;;;;;;5046912;28;20092;-79
2021/05/28 12:50:32;;;;;;;5.50;2.20;;;;;;;;;;5049023;28;20052;-75
2021/05/28 12:53:01;;;;;;;7.63;3.23;;;;;;;;;;5041743;28;20408;-79
2021/05/28 12:55:37;;;;;;;5.80;2.47;;;;;;;;;;5039093;28;20493;-74
2021/05/28 12:58:03;;;;;;;5.03;2.10;;;;;;;;;;5061273;28;20082;-83
2021/05/28 13:00:39;;;;;;;5.13;1.90;;;;;;;;;;5078150;28;20036;-83
2021/05/28 13:03:06;;;;;;;4.60;3.08;;;;;;;;;;5078820;28;20054;-80
2021/05/28 13:05:34;;;;;;;6.18;3.17;;;;;;;;;;5079498;28;20029;-81
2021/05/28 13:08:01;;;;;;;10.13;4.65;;;;;;;;;;5074798;28;20100;-81
2021/05/28 13:10:28;;;;;;;7.53;3.80;;;;;;;;;;5087409;28;20485;-80
2021/05/28 13:13:15;;;;;;;5.25;3.00;;;;;;;;;;5074237;28;20060;-69
2021/05/28 13:15:42;;;;;;;5.18;2.80;;;;;;;;;;5074335;28;20162;-81
2021/05/28 13:18:08;;;;;;;3.70;2.40;;;;;;;;;;5079367;28;20099;-82
2021/05/28 13:20:35;;;;;;;3.92;2.20;;;;;;;;;;5091023;28;20032;-81
2021/05/28 13:23:08;;;;;;;2.30;1.98;;;;;;;;;;5087978;28;20020;-79
2021/05/28 13:25:38;;;;;;;6.22;1.90;;;;;;;;;;5074117;28;20394;-80
2021/05/28 13:28:09;;;;;;;5.82;2.22;;;;;;;;;;5074116;28;20096;-69
2021/05/28 13:30:40;;;;;;;5.65;2.00;;;;;;;;;;5082808;28;20033;-83
2021/05/28 13:33:15;;;;;;;6.63;2.38;;;;;;;;;;5069443;28;20028;-81
2021/05/28 13:35:41;;;;;;;4.35;1.88;;;;;;;;;;5069627;28;20141;-81
2021/05/28 13:38:07;;;;;;;3.58;2.13;;;;;;;;;;5074222;28;20032;-82
2021/05/28 13:40:33;;;;;;;3.90;2.10;;;;;;;;;;5082629;28;20094;-82
2021/05/28 13:42:59;;;;;;;4.15;1.85;;;;;;;;;;5079972;28;20055;-79
2021/05/28 13:45:26;;;;;;;14.13;2.35;;;;;;;;;;5072803;28;20107;-69
2021/05/28 13:47:52;;;;;;;6.57;2.40;;;;;;;;;;5070242;28;20035;-82
2021/05/28 13:50:18;;;;;;;5.32;1.92;;;;;;;;;;5078020;28;20565;-79
2021/05/28 13:52:44;;;;;;;8.32;2.25;;;;;;;;;;5074020;28;20024;-76
2021/05/28 13:55:11;;;;;;;5.60;2.15;;;;;;;;;;5073504;28;20480;-83
2021/05/28 13:57:46;;;;;;;5.13;1.90;;;;;;;;;;5073410;28;20024;-82
2021/05/28 14:00:14;;;;;;;3.78;1.70;;;;;;;;;;5076973;28;20093;-73
2021/05/28 14:02:41;;;;;;;5.18;1.92;;;;;;;;;;5079354;28;20031;-81
2021/05/28 14:05:08;;;;;;;6.57;1.92;;;;;;;;;;5078019;28;20120;-82
2021/05/28 14:07:34;;;;;;;6.10;1.92;;;;;;;;;;5071556;28;20027;-81
2021/05/28 14:10:00;;;;;;;36.13;3.42;;;;;;;;;;5063693;28;20108;-77
2021/05/28 14:12:26;;;;;;;5.95;1.83;;;;;;;;;;5073512;28;20025;-81
2021/05/28 14:14:52;;;;;;;6.60;1.67;;;;;;;;;;5059077;28;20458;-80
2021/05/28 14:17:18;;;;;;;5.97;1.80;;;;;;;;;;5061212;28;20032;-76
2021/05/28 14:19:44;;;;;;;2.47;1.70;;;;;;;;;;5065619;28;20017;-80
2021/05/28 14:22:10;;;;;;;3.17;1.55;;;;;;;;;;5059032;28;20104;-80
2021/05/28 14:24:37;;;;;;;4.38;1.80;;;;;;;;;;5055190;28;20037;-80
2021/05/28 14:27:03;;;;;;;1.88;1.65;;;;;;;;;;5062673;28;20021;-68
2021/05/28 14:29:29;;;;;;;9.40;2.00;;;;;;;;;;5066297;28;20372;-78
2021/05/28 14:31:55;;;;;;;6.63;2.00;;;;;;;;;;5051771;28;20406;-74
2021/05/28 14:34:21;;;;;;;4.65;1.60;;;;;;;;;;5066239;28;20041;-78
2021/05/28 14:36:47;;;;;;;3.50;1.77;;;;;;;;;;5055987;28;20055;-81
2021/05/28 14:39:22;;;;;;;4.25;1.58;;;;;;;;;;5061131;28;20028;-73
2021/05/28 14:41:48;;;;;;;2.80;1.70;;;;;;;;;;5069423;28;20013;-77
2021/05/28 14:44:15;;;;;;;3.67;1.90;;;;;;;;;;5086952;28;20052;-82
2021/05/28 14:46:44;;;;;;;2.78;2.00;;;;;;;;;;5071044;28;20036;-79
2021/05/28 14:49:10;;;;;;;3.10;1.65;;;;;;;;;;5070104;28;20148;-78
2021/05/28 14:51:36;;;;;;;3.33;2.03;;;;;;;;;;5072469;28;20395;-78
2021/05/28 14:54:02;;;;;;;5.05;1.90;;;;;;;;;;5070865;28;20060;-70